sensor_id;sensor_type;location;lat;lon;timestamp;temperature;humidity
9666;DHT22;4871;52.004;5.924;2023-01-28T00:00:00;3.8;85.2
9666;DHT22;4871;52.004;5.924;2023-01-28T00:01:03;3.8;85.2
9666;DHT22;4871;52.004;5.924;2023-01-28T00:02:00;3.8;85.3
9666;DHT22;4871;52.004;5.924;2023-01-28T00:03:00;3.8;85.2
9666;DHT22;4871;52.004;5.924;2023-01-28T00:04:00;3.8;85.4
9666;DHT22;4871;52.004;5.924;2023-01-28T00:05:00;3.8;85.3
9666;DHT22;4871;52.004;5.924;2023-01-28T00:06:02;3.8;85.4
9666;DHT22;4871;52.004;5.924;2023-01-28T00:07:00;3.8;85.4
9666;DHT22;4871;52.004;5.924;2023-01-28T00:08:00;3.8;85.4
9666;DHT22;4871;52.004;5.924;2023-01-28T00:09:00;3.8;85.4
9666;DHT22;4871;52.004;5.924;2023-01-28T00:10:00;3.8;85.3
9666;DHT22;4871;52.004;5.924;2023-01-28T00:11:02;3.8;85.3
9666;DHT22;4871;52.004;5.924;2023-01-28T00:12:00;3.8;85.4
9666;DHT22;4871;52.004;5.924;2023-01-28T00:13:00;3.8;85.4
9666;DHT22;4871;52.004;5.924;2023-01-28T00:14:00;3.8;85.3
9666;DHT22;4871;52.004;5.924;2023-01-28T00:15:00;3.8;85.3
9666;DHT22;4871;52.004;5.924;2023-01-28T00:16:02;3.8;85.3
9666;DHT22;4871;52.004;5.924;2023-01-28T00:17:03;3.8;85.3
9666;DHT22;4871;52.004;5.924;2023-01-28T00:18:00;3.8;85.2
9666;DHT22;4871;52.004;5.924;2023-01-28T00:19:00;3.8;85.2
9666;DHT22;4871;52.004;5.924;2023-01-28T00:20:00;3.8;85.3
9666;DHT22;4871;52.004;5.924;2023-01-28T00:21:02;3.8;85.3
9666;DHT22;4871;52.004;5.924;2023-01-28T00:22:01;3.8;85.2
9666;DHT22;4871;52.004;5.924;2023-01-28T00:23:00;3.8;85.2
9666;DHT22;4871;52.004;5.924;2023-01-28T00:24:00;3.8;85.3
9666;DHT22;4871;52.004;5.924;2023-01-28T00:25:00;3.8;85.3
9666;DHT22;4871;52.004;5.924;2023-01-28T00:26:02;3.8;85.3
9666;DHT22;4871;52.004;5.924;2023-01-28T00:27:00;3.8;85.3
9666;DHT22;4871;52.004;5.924;2023-01-28T00:28:00;3.8;85.3
9666;DHT22;4871;52.004;5.924;2023-01-28T00:29:00;3.8;85.3
9666;DHT22;4871;52.004;5.924;2023-01-28T00:30:00;3.8;85.3
9666;DHT22;4871;52.004;5.924;2023-01-28T00:31:13;3.8;85.4
9666;DHT22;4871;52.004;5.924;2023-01-28T00:32:00;3.8;85.4
9666;DHT22;4871;52.004;5.924;2023-01-28T00:33:00;3.8;85.3
9666;DHT22;4871;52.004;5.924;2023-01-28T00:34:00;3.8;85.3
9666;DHT22;4871;52.004;5.924;2023-01-28T00:35:00;3.8;85.2
9666;DHT22;4871;52.004;5.924;2023-01-28T00:36:01;3.8;85.3
9666;DHT22;4871;52.004;5.924;2023-01-28T00:37:00;3.8;85.2
9666;DHT22;4871;52.004;5.924;2023-01-28T00:38:02;3.8;85.2
9666;DHT22;4871;52.004;5.924;2023-01-28T00:39:00;3.8;85.2
9666;DHT22;4871;52.004;5.924;2023-01-28T00:40:00;3.8;85.2
9666;DHT22;4871;52.004;5.924;2023-01-28T00:41:08;3.7;85.3
9666;DHT22;4871;52.004;5.924;2023-01-28T00:42:00;3.8;85.3
9666;DHT22;4871;52.004;5.924;2023-01-28T00:43:00;3.8;85.3
9666;DHT22;4871;52.004;5.924;2023-01-28T00:44:00;3.7;85.3
9666;DHT22;4871;52.004;5.924;2023-01-28T00:45:00;3.7;85.4
9666;DHT22;4871;52.004;5.924;2023-01-28T00:46:00;3.8;85.4
9666;DHT22;4871;52.004;5.924;2023-01-28T00:47:00;3.7;85.4
9666;DHT22;4871;52.004;5.924;2023-01-28T00:48:00;3.7;85.3
9666;DHT22;4871;52.004;5.924;2023-01-28T00:49:00;3.7;85.4
9666;DHT22;4871;52.004;5.924;2023-01-28T00:50:00;3.7;85.4
9666;DHT22;4871;52.004;5.924;2023-01-28T00:51:00;3.7;85.4
9666;DHT22;4871;52.004;5.924;2023-01-28T00:52:00;3.7;85.3
9666;DHT22;4871;52.004;5.924;2023-01-28T00:53:00;3.7;85.4
9666;DHT22;4871;52.004;5.924;2023-01-28T00:54:00;3.7;85.3
9666;DHT22;4871;52.004;5.924;2023-01-28T00:55:00;3.7;85.3
9666;DHT22;4871;52.004;5.924;2023-01-28T00:56:00;3.7;85.2
9666;DHT22;4871;52.004;5.924;2023-01-28T00:57:00;3.7;85.4
9666;DHT22;4871;52.004;5.924;2023-01-28T00:58:00;3.7;85.2
9666;DHT22;4871;52.004;5.924;2023-01-28T00:59:00;3.7;85.4
9666;DHT22;4871;52.004;5.924;2023-01-28T01:00:00;3.7;85.3
9666;DHT22;4871;52.004;5.924;2023-01-28T01:01:12;3.7;85.4
9666;DHT22;4871;52.004;5.924;2023-01-28T01:02:10;3.7;85.4
9666;DHT22;4871;52.004;5.924;2023-01-28T01:03:00;3.7;85.4
9666;DHT22;4871;52.004;5.924;2023-01-28T01:04:01;3.7;85.4
9666;DHT22;4871;52.004;5.924;2023-01-28T01:05:00;3.7;85.4
9666;DHT22;4871;52.004;5.924;2023-01-28T01:06:00;3.7;85.4
9666;DHT22;4871;52.004;5.924;2023-01-28T01:07:00;3.7;85.4
9666;DHT22;4871;52.004;5.924;2023-01-28T01:08:00;3.7;85.4
9666;DHT22;4871;52.004;5.924;2023-01-28T01:09:02;3.7;85.4
9666;DHT22;4871;52.004;5.924;2023-01-28T01:10:00;3.7;85.4
9666;DHT22;4871;52.004;5.924;2023-01-28T01:11:01;3.7;85.4
9666;DHT22;4871;52.004;5.924;2023-01-28T01:12:00;3.7;85.3
9666;DHT22;4871;52.004;5.924;2023-01-28T01:13:00;3.7;85.4
9666;DHT22;4871;52.004;5.924;2023-01-28T01:14:00;3.7;85.4
9666;DHT22;4871;52.004;5.924;2023-01-28T01:15:00;3.7;85.4
9666;DHT22;4871;52.004;5.924;2023-01-28T01:16:01;3.7;85.2
9666;DHT22;4871;52.004;5.924;2023-01-28T01:17:00;3.7;85.2
9666;DHT22;4871;52.004;5.924;2023-01-28T01:18:00;3.7;85.4
9666;DHT22;4871;52.004;5.924;2023-01-28T01:19:01;3.7;85.4
9666;DHT22;4871;52.004;5.924;2023-01-28T01:20:00;3.6;85.4
9666;DHT22;4871;52.004;5.924;2023-01-28T01:21:01;3.6;85.3
9666;DHT22;4871;52.004;5.924;2023-01-28T01:22:00;3.6;85.4
9666;DHT22;4871;52.004;5.924;2023-01-28T01:23:00;3.6;85.4
9666;DHT22;4871;52.004;5.924;2023-01-28T01:24:00;3.7;85.5
9666;DHT22;4871;52.004;5.924;2023-01-28T01:25:01;3.7;85.2
9666;DHT22;4871;52.004;5.924;2023-01-28T01:26:02;3.6;85.3
9666;DHT22;4871;52.004;5.924;2023-01-28T01:27:00;3.6;85.5
9666;DHT22;4871;52.004;5.924;2023-01-28T01:28:00;3.6;85.5
9666;DHT22;4871;52.004;5.924;2023-01-28T01:29:00;3.6;85.4
9666;DHT22;4871;52.004;5.924;2023-01-28T01:30:00;3.6;85.5
9666;DHT22;4871;52.004;5.924;2023-01-28T01:31:02;3.6;85.4
9666;DHT22;4871;52.004;5.924;2023-01-28T01:32:00;3.6;85.5
9666;DHT22;4871;52.004;5.924;2023-01-28T01:33:00;3.6;85.5
9666;DHT22;4871;52.004;5.924;2023-01-28T01:34:00;3.6;85.3
9666;DHT22;4871;52.004;5.924;2023-01-28T01:35:00;3.6;85.5
9666;DHT22;4871;52.004;5.924;2023-01-28T01:36:00;3.6;85.5
9666;DHT22;4871;52.004;5.924;2023-01-28T01:37:00;3.6;85.5
9666;DHT22;4871;52.004;5.924;2023-01-28T01:38:00;3.6;85.4
9666;DHT22;4871;52.004;5.924;2023-01-28T01:39:00;3.6;85.5
9666;DHT22;4871;52.004;5.924;2023-01-28T01:40:03;3.6;85.3
9666;DHT22;4871;52.004;5.924;2023-01-28T01:41:00;3.6;85.5
9666;DHT22;4871;52.004;5.924;2023-01-28T01:42:01;3.6;85.5
9666;DHT22;4871;52.004;5.924;2023-01-28T01:43:00;3.6;85.4
9666;DHT22;4871;52.004;5.924;2023-01-28T01:44:02;3.6;85.3
9666;DHT22;4871;52.004;5.924;2023-01-28T01:45:05;3.6;85.5
9666;DHT22;4871;52.004;5.924;2023-01-28T01:46:00;3.6;85.6
9666;DHT22;4871;52.004;5.924;2023-01-28T01:47:00;3.6;85.4
9666;DHT22;4871;52.004;5.924;2023-01-28T01:48:03;3.6;85.6
9666;DHT22;4871;52.004;5.924;2023-01-28T01:50:05;3.6;85.4
9666;DHT22;4871;52.004;5.924;2023-01-28T01:51:04;3.6;85.4
9666;DHT22;4871;52.004;5.924;2023-01-28T01:52:07;3.6;85.5
9666;DHT22;4871;52.004;5.924;2023-01-28T01:53:05;3.6;85.4
9666;DHT22;4871;52.004;5.924;2023-01-28T01:54:01;3.6;85.5
9666;DHT22;4871;52.004;5.924;2023-01-28T01:55:03;3.6;85.3
9666;DHT22;4871;52.004;5.924;2023-01-28T01:56:03;3.6;85.5
9666;DHT22;4871;52.004;5.924;2023-01-28T01:57:01;3.5;85.3
9666;DHT22;4871;52.004;5.924;2023-01-28T01:58:04;3.5;85.6
9666;DHT22;4871;52.004;5.924;2023-01-28T01:59:01;3.5;85.5
9666;DHT22;4871;52.004;5.924;2023-01-28T02:00:06;3.6;85.4
9666;DHT22;4871;52.004;5.924;2023-01-28T02:01:01;3.5;85.4
9666;DHT22;4871;52.004;5.924;2023-01-28T02:02:02;3.5;85.4
9666;DHT22;4871;52.004;5.924;2023-01-28T02:03:00;3.5;85.4
9666;DHT22;4871;52.004;5.924;2023-01-28T02:04:05;3.5;85.6
9666;DHT22;4871;52.004;5.924;2023-01-28T02:05:01;3.5;85.5
9666;DHT22;4871;52.004;5.924;2023-01-28T02:06:00;3.5;85.5
9666;DHT22;4871;52.004;5.924;2023-01-28T02:07:01;3.5;85.4
9666;DHT22;4871;52.004;5.924;2023-01-28T02:08:10;3.5;85.6
9666;DHT22;4871;52.004;5.924;2023-01-28T02:09:00;3.5;85.5
9666;DHT22;4871;52.004;5.924;2023-01-28T02:10:00;3.5;85.6
9666;DHT22;4871;52.004;5.924;2023-01-28T02:11:03;3.5;85.6
9666;DHT22;4871;52.004;5.924;2023-01-28T02:12:03;3.5;85.6
9666;DHT22;4871;52.004;5.924;2023-01-28T02:13:00;3.5;85.4
9666;DHT22;4871;52.004;5.924;2023-01-28T02:14:01;3.5;85.5
9666;DHT22;4871;52.004;5.924;2023-01-28T02:15:04;3.5;85.6
9666;DHT22;4871;52.004;5.924;2023-01-28T02:16:01;3.5;85.4
9666;DHT22;4871;52.004;5.924;2023-01-28T02:17:00;3.5;85.5
9666;DHT22;4871;52.004;5.924;2023-01-28T02:18:00;3.5;85.5
9666;DHT22;4871;52.004;5.924;2023-01-28T02:19:00;3.5;85.5
9666;DHT22;4871;52.004;5.924;2023-01-28T02:24:16;3.5;85.5
9666;DHT22;4871;52.004;5.924;2023-01-28T02:26:11;3.5;85.4
9666;DHT22;4871;52.004;5.924;2023-01-28T02:27:13;3.5;85.5
9666;DHT22;4871;52.004;5.924;2023-01-28T02:28:11;3.5;85.5
9666;DHT22;4871;52.004;5.924;2023-01-28T02:29:07;3.5;85.4
9666;DHT22;4871;52.004;5.924;2023-01-28T02:30:05;3.5;85.5
9666;DHT22;4871;52.004;5.924;2023-01-28T02:31:15;3.5;85.5
9666;DHT22;4871;52.004;5.924;2023-01-28T02:32:07;3.5;85.5
9666;DHT22;4871;52.004;5.924;2023-01-28T02:33:07;3.5;85.7
9666;DHT22;4871;52.004;5.924;2023-01-28T02:34:05;3.4;85.5
9666;DHT22;4871;52.004;5.924;2023-01-28T02:35:11;3.4;85.6
9666;DHT22;4871;52.004;5.924;2023-01-28T02:36:07;3.5;85.6
9666;DHT22;4871;52.004;5.924;2023-01-28T02:37:05;3.4;85.7
9666;DHT22;4871;52.004;5.924;2023-01-28T02:38:06;3.4;85.5
9666;DHT22;4871;52.004;5.924;2023-01-28T02:39:06;3.4;85.6
9666;DHT22;4871;52.004;5.924;2023-01-28T02:40:05;3.4;85.4
9666;DHT22;4871;52.004;5.924;2023-01-28T02:41:05;3.4;85.6
9666;DHT22;4871;52.004;5.924;2023-01-28T02:42:05;3.4;85.5
9666;DHT22;4871;52.004;5.924;2023-01-28T02:43:00;3.4;85.5
9666;DHT22;4871;52.004;5.924;2023-01-28T02:44:01;3.4;85.5
9666;DHT22;4871;52.004;5.924;2023-01-28T02:45:00;3.4;85.5
9666;DHT22;4871;52.004;5.924;2023-01-28T02:46:17;3.4;85.6
9666;DHT22;4871;52.004;5.924;2023-01-28T02:47:11;3.4;85.5
9666;DHT22;4871;52.004;5.924;2023-01-28T02:48:00;3.4;85.5
9666;DHT22;4871;52.004;5.924;2023-01-28T02:49:01;3.4;85.6
9666;DHT22;4871;52.004;5.924;2023-01-28T02:50:04;3.4;85.6
9666;DHT22;4871;52.004;5.924;2023-01-28T02:51:04;3.4;85.5
9666;DHT22;4871;52.004;5.924;2023-01-28T02:53:19;3.4;85.5
9666;DHT22;4871;52.004;5.924;2023-01-28T02:54:10;3.4;85.6
9666;DHT22;4871;52.004;5.924;2023-01-28T02:55:08;3.4;85.5
9666;DHT22;4871;52.004;5.924;2023-01-28T02:56:09;3.4;85.5
9666;DHT22;4871;52.004;5.924;2023-01-28T02:57:08;3.4;85.5
9666;DHT22;4871;52.004;5.924;2023-01-28T02:58:06;3.4;85.7
9666;DHT22;4871;52.004;5.924;2023-01-28T03:00:03;3.4;85.6
9666;DHT22;4871;52.004;5.924;2023-01-28T03:01:08;3.4;85.4
9666;DHT22;4871;52.004;5.924;2023-01-28T03:03:07;3.4;85.6
9666;DHT22;4871;52.004;5.924;2023-01-28T03:04:07;3.4;85.5
9666;DHT22;4871;52.004;5.924;2023-01-28T03:06:07;3.4;85.5
9666;DHT22;4871;52.004;5.924;2023-01-28T03:07:06;3.3;85.6
9666;DHT22;4871;52.004;5.924;2023-01-28T03:08:10;3.4;85.6
9666;DHT22;4871;52.004;5.924;2023-01-28T03:09:11;3.4;85.6
9666;DHT22;4871;52.004;5.924;2023-01-28T03:10:06;3.3;85.7
9666;DHT22;4871;52.004;5.924;2023-01-28T03:11:10;3.4;85.6
9666;DHT22;4871;52.004;5.924;2023-01-28T03:12:15;3.3;85.6
9666;DHT22;4871;52.004;5.924;2023-01-28T03:13:10;3.3;85.5
9666;DHT22;4871;52.004;5.924;2023-01-28T03:14:10;3.3;85.6
9666;DHT22;4871;52.004;5.924;2023-01-28T03:15:20;3.3;85.6
9666;DHT22;4871;52.004;5.924;2023-01-28T03:16:10;3.4;85.6
9666;DHT22;4871;52.004;5.924;2023-01-28T03:17:15;3.3;85.6
9666;DHT22;4871;52.004;5.924;2023-01-28T03:19:11;3.3;85.6
9666;DHT22;4871;52.004;5.924;2023-01-28T03:20:11;3.3;85.5
9666;DHT22;4871;52.004;5.924;2023-01-28T03:21:14;3.3;85.5
9666;DHT22;4871;52.004;5.924;2023-01-28T03:22:10;3.3;85.6
9666;DHT22;4871;52.004;5.924;2023-01-28T03:23:13;3.3;85.6
9666;DHT22;4871;52.004;5.924;2023-01-28T03:24:13;3.3;85.6
9666;DHT22;4871;52.004;5.924;2023-01-28T03:25:11;3.3;85.5
9666;DHT22;4871;52.004;5.924;2023-01-28T03:26:10;3.3;85.5
9666;DHT22;4871;52.004;5.924;2023-01-28T03:27:18;3.3;85.6
9666;DHT22;4871;52.004;5.924;2023-01-28T03:28:15;3.3;85.7
9666;DHT22;4871;52.004;5.924;2023-01-28T03:29:13;3.3;85.4
9666;DHT22;4871;52.004;5.924;2023-01-28T03:30:13;3.3;85.5
9666;DHT22;4871;52.004;5.924;2023-01-28T03:31:14;3.3;85.5
9666;DHT22;4871;52.004;5.924;2023-01-28T03:32:11;3.3;85.5
9666;DHT22;4871;52.004;5.924;2023-01-28T03:33:10;3.3;85.5
9666;DHT22;4871;52.004;5.924;2023-01-28T03:34:11;3.3;85.7
9666;DHT22;4871;52.004;5.924;2023-01-28T03:35:12;3.3;85.6
9666;DHT22;4871;52.004;5.924;2023-01-28T03:36:10;3.3;85.6
9666;DHT22;4871;52.004;5.924;2023-01-28T03:37:00;3.3;85.6
9666;DHT22;4871;52.004;5.924;2023-01-28T03:38:01;3.3;85.7
9666;DHT22;4871;52.004;5.924;2023-01-28T03:39:00;3.3;85.6
9666;DHT22;4871;52.004;5.924;2023-01-28T03:40:02;3.3;85.6
9666;DHT22;4871;52.004;5.924;2023-01-28T03:41:02;3.3;85.6
9666;DHT22;4871;52.004;5.924;2023-01-28T03:43:00;3.3;85.5
9666;DHT22;4871;52.004;5.924;2023-01-28T03:44:10;3.3;85.6
9666;DHT22;4871;52.004;5.924;2023-01-28T03:45:03;3.3;85.6
9666;DHT22;4871;52.004;5.924;2023-01-28T03:46:01;3.3;85.7
9666;DHT22;4871;52.004;5.924;2023-01-28T03:47:00;3.2;85.6
9666;DHT22;4871;52.004;5.924;2023-01-28T03:48:00;3.3;85.7
9666;DHT22;4871;52.004;5.924;2023-01-28T03:49:00;3.2;85.6
9666;DHT22;4871;52.004;5.924;2023-01-28T03:50:00;3.3;85.7
9666;DHT22;4871;52.004;5.924;2023-01-28T03:51:00;3.2;85.6
9666;DHT22;4871;52.004;5.924;2023-01-28T03:52:00;3.2;85.6
9666;DHT22;4871;52.004;5.924;2023-01-28T03:53:10;3.2;85.7
9666;DHT22;4871;52.004;5.924;2023-01-28T03:54:03;3.2;85.6
9666;DHT22;4871;52.004;5.924;2023-01-28T03:55:00;3.2;85.7
9666;DHT22;4871;52.004;5.924;2023-01-28T03:56:00;3.2;85.7
9666;DHT22;4871;52.004;5.924;2023-01-28T03:57:00;3.2;85.8
9666;DHT22;4871;52.004;5.924;2023-01-28T03:58:00;3.2;85.6
9666;DHT22;4871;52.004;5.924;2023-01-28T03:59:00;3.2;85.6
9666;DHT22;4871;52.004;5.924;2023-01-28T04:00:00;3.2;85.7
9666;DHT22;4871;52.004;5.924;2023-01-28T04:01:00;3.2;85.5
9666;DHT22;4871;52.004;5.924;2023-01-28T04:02:02;3.2;85.6
9666;DHT22;4871;52.004;5.924;2023-01-28T04:03:00;3.2;85.6
9666;DHT22;4871;52.004;5.924;2023-01-28T04:04:00;3.2;85.6
9666;DHT22;4871;52.004;5.924;2023-01-28T04:05:07;3.2;85.7
9666;DHT22;4871;52.004;5.924;2023-01-28T04:07:00;3.2;85.6
9666;DHT22;4871;52.004;5.924;2023-01-28T04:08:00;3.2;85.6
9666;DHT22;4871;52.004;5.924;2023-01-28T04:09:00;3.2;85.6
9666;DHT22;4871;52.004;5.924;2023-01-28T04:10:00;3.2;85.6
9666;DHT22;4871;52.004;5.924;2023-01-28T04:11:10;3.2;85.5
9666;DHT22;4871;52.004;5.924;2023-01-28T04:12:00;3.2;85.5
9666;DHT22;4871;52.004;5.924;2023-01-28T04:13:00;3.2;85.6
9666;DHT22;4871;52.004;5.924;2023-01-28T04:14:00;3.2;85.6
9666;DHT22;4871;52.004;5.924;2023-01-28T04:15:00;3.2;85.6
9666;DHT22;4871;52.004;5.924;2023-01-28T04:16:02;3.1;85.3
9666;DHT22;4871;52.004;5.924;2023-01-28T04:17:00;3.1;85.7
9666;DHT22;4871;52.004;5.924;2023-01-28T04:18:00;3.1;85.7
9666;DHT22;4871;52.004;5.924;2023-01-28T04:19:00;3.1;85.6
9666;DHT22;4871;52.004;5.924;2023-01-28T04:20:00;3.1;85.7
9666;DHT22;4871;52.004;5.924;2023-01-28T04:21:00;3.1;85.7
9666;DHT22;4871;52.004;5.924;2023-01-28T04:22:00;3.1;85.5
9666;DHT22;4871;52.004;5.924;2023-01-28T04:23:00;3.1;85.5
9666;DHT22;4871;52.004;5.924;2023-01-28T04:24:01;3.1;85.6
9666;DHT22;4871;52.004;5.924;2023-01-28T04:25:00;3.2;85.5
9666;DHT22;4871;52.004;5.924;2023-01-28T04:26:00;3.1;85.4
9666;DHT22;4871;52.004;5.924;2023-01-28T04:27:00;3.1;85.5
9666;DHT22;4871;52.004;5.924;2023-01-28T04:28:00;3.1;85.5
9666;DHT22;4871;52.004;5.924;2023-01-28T04:29:01;3.1;85.6
9666;DHT22;4871;52.004;5.924;2023-01-28T04:30:00;3.1;85.6
9666;DHT22;4871;52.004;5.924;2023-01-28T04:31:00;3.1;85.5
9666;DHT22;4871;52.004;5.924;2023-01-28T04:32:00;3.1;85.5
9666;DHT22;4871;52.004;5.924;2023-01-28T04:33:00;3.1;85.6
9666;DHT22;4871;52.004;5.924;2023-01-28T04:34:00;3.1;85.6
9666;DHT22;4871;52.004;5.924;2023-01-28T04:35:00;3.1;85.5
9666;DHT22;4871;52.004;5.924;2023-01-28T04:36:00;3.1;85.6
9666;DHT22;4871;52.004;5.924;2023-01-28T04:37:00;3.1;85.6
9666;DHT22;4871;52.004;5.924;2023-01-28T04:38:00;3.1;85.6
9666;DHT22;4871;52.004;5.924;2023-01-28T04:39:00;3.1;85.6
9666;DHT22;4871;52.004;5.924;2023-01-28T04:40:00;3.1;85.4
9666;DHT22;4871;52.004;5.924;2023-01-28T04:41:00;3.1;85.4
9666;DHT22;4871;52.004;5.924;2023-01-28T04:42:00;3.1;85.6
9666;DHT22;4871;52.004;5.924;2023-01-28T04:43:00;3.1;85.5
9666;DHT22;4871;52.004;5.924;2023-01-28T04:44:00;3.1;85.5
9666;DHT22;4871;52.004;5.924;2023-01-28T04:45:00;3.1;85.5
9666;DHT22;4871;52.004;5.924;2023-01-28T04:46:00;3.1;85.4
9666;DHT22;4871;52.004;5.924;2023-01-28T04:47:00;3.1;85.5
9666;DHT22;4871;52.004;5.924;2023-01-28T04:48:00;3.1;85.6
9666;DHT22;4871;52.004;5.924;2023-01-28T04:49:01;3.1;85.5
9666;DHT22;4871;52.004;5.924;2023-01-28T04:50:00;3.1;85.5
9666;DHT22;4871;52.004;5.924;2023-01-28T04:51:01;3.1;85.5
9666;DHT22;4871;52.004;5.924;2023-01-28T04:52:00;3.1;85.6
9666;DHT22;4871;52.004;5.924;2023-01-28T04:53:00;3.1;85.7
9666;DHT22;4871;52.004;5.924;2023-01-28T04:54:00;3.1;85.5
9666;DHT22;4871;52.004;5.924;2023-01-28T04:55:02;3.1;85.5
9666;DHT22;4871;52.004;5.924;2023-01-28T04:56:00;3.1;85.4
9666;DHT22;4871;52.004;5.924;2023-01-28T04:57:00;3.1;85.4
9666;DHT22;4871;52.004;5.924;2023-01-28T04:58:00;3.1;85.4
9666;DHT22;4871;52.004;5.924;2023-01-28T04:59:01;3.1;85.5
9666;DHT22;4871;52.004;5.924;2023-01-28T05:00:00;3.1;85.5
9666;DHT22;4871;52.004;5.924;2023-01-28T05:01:00;3.1;85.5
9666;DHT22;4871;52.004;5.924;2023-01-28T05:02:00;3.1;85.6
9666;DHT22;4871;52.004;5.924;2023-01-28T05:03:00;3.0;85.5
9666;DHT22;4871;52.004;5.924;2023-01-28T05:04:04;3.0;85.5
9666;DHT22;4871;52.004;5.924;2023-01-28T05:05:03;3.0;85.5
9666;DHT22;4871;52.004;5.924;2023-01-28T05:06:00;3.1;85.5
9666;DHT22;4871;52.004;5.924;2023-01-28T05:07:01;3.0;85.6
9666;DHT22;4871;52.004;5.924;2023-01-28T05:08:00;3.0;85.6
9666;DHT22;4871;52.004;5.924;2023-01-28T05:09:00;3.0;85.4
9666;DHT22;4871;52.004;5.924;2023-01-28T05:10:00;3.0;85.4
9666;DHT22;4871;52.004;5.924;2023-01-28T05:11:00;3.0;85.5
9666;DHT22;4871;52.004;5.924;2023-01-28T05:12:00;3.0;85.5
9666;DHT22;4871;52.004;5.924;2023-01-28T05:13:00;3.0;85.4
9666;DHT22;4871;52.004;5.924;2023-01-28T05:14:01;3.0;85.4
9666;DHT22;4871;52.004;5.924;2023-01-28T05:15:00;3.0;85.5
9666;DHT22;4871;52.004;5.924;2023-01-28T05:16:00;3.0;85.5
9666;DHT22;4871;52.004;5.924;2023-01-28T05:17:00;3.0;85.5
9666;DHT22;4871;52.004;5.924;2023-01-28T05:18:00;3.0;85.5
9666;DHT22;4871;52.004;5.924;2023-01-28T05:19:01;3.0;85.5
9666;DHT22;4871;52.004;5.924;2023-01-28T05:20:00;3.0;85.6
9666;DHT22;4871;52.004;5.924;2023-01-28T05:21:00;3.0;85.6
9666;DHT22;4871;52.004;5.924;2023-01-28T05:22:00;3.0;85.5
9666;DHT22;4871;52.004;5.924;2023-01-28T05:23:00;3.0;85.5
9666;DHT22;4871;52.004;5.924;2023-01-28T05:24:00;3.0;85.5
9666;DHT22;4871;52.004;5.924;2023-01-28T05:25:02;3.0;85.5
9666;DHT22;4871;52.004;5.924;2023-01-28T05:26:00;3.0;85.4
9666;DHT22;4871;52.004;5.924;2023-01-28T05:27:00;3.0;85.5
9666;DHT22;4871;52.004;5.924;2023-01-28T05:28:00;3.0;85.5
9666;DHT22;4871;52.004;5.924;2023-01-28T05:29:00;3.0;85.4
9666;DHT22;4871;52.004;5.924;2023-01-28T05:30:00;2.9;85.4
9666;DHT22;4871;52.004;5.924;2023-01-28T05:31:03;2.9;85.6
9666;DHT22;4871;52.004;5.924;2023-01-28T05:32:00;2.9;85.4
9666;DHT22;4871;52.004;5.924;2023-01-28T05:33:00;2.9;85.6
9666;DHT22;4871;52.004;5.924;2023-01-28T05:34:00;2.9;85.5
9666;DHT22;4871;52.004;5.924;2023-01-28T05:35:00;2.9;85.5
9666;DHT22;4871;52.004;5.924;2023-01-28T05:36:00;2.9;85.5
9666;DHT22;4871;52.004;5.924;2023-01-28T05:37:00;2.9;85.4
9666;DHT22;4871;52.004;5.924;2023-01-28T05:38:00;2.9;85.5
9666;DHT22;4871;52.004;5.924;2023-01-28T05:39:00;2.9;85.5
9666;DHT22;4871;52.004;5.924;2023-01-28T05:40:00;2.9;85.5
9666;DHT22;4871;52.004;5.924;2023-01-28T05:41:00;2.9;85.5
9666;DHT22;4871;52.004;5.924;2023-01-28T05:42:00;2.9;85.6
9666;DHT22;4871;52.004;5.924;2023-01-28T05:43:00;2.9;85.5
9666;DHT22;4871;52.004;5.924;2023-01-28T05:44:00;2.9;85.4
9666;DHT22;4871;52.004;5.924;2023-01-28T05:45:00;2.9;85.4
9666;DHT22;4871;52.004;5.924;2023-01-28T05:46:00;2.9;85.5
9666;DHT22;4871;52.004;5.924;2023-01-28T05:47:00;2.9;85.5
9666;DHT22;4871;52.004;5.924;2023-01-28T05:48:00;2.9;85.5
9666;DHT22;4871;52.004;5.924;2023-01-28T05:49:00;2.9;85.4
9666;DHT22;4871;52.004;5.924;2023-01-28T05:50:00;2.9;85.5
9666;DHT22;4871;52.004;5.924;2023-01-28T05:51:00;2.9;85.5
9666;DHT22;4871;52.004;5.924;2023-01-28T05:52:01;2.9;85.5
9666;DHT22;4871;52.004;5.924;2023-01-28T05:53:00;2.9;85.5
9666;DHT22;4871;52.004;5.924;2023-01-28T05:54:00;2.9;85.5
9666;DHT22;4871;52.004;5.924;2023-01-28T05:55:00;2.9;85.4
9666;DHT22;4871;52.004;5.924;2023-01-28T05:56:00;2.9;85.5
9666;DHT22;4871;52.004;5.924;2023-01-28T05:57:00;2.9;85.5
9666;DHT22;4871;52.004;5.924;2023-01-28T05:58:00;2.9;85.5
9666;DHT22;4871;52.004;5.924;2023-01-28T05:59:01;2.9;85.3
9666;DHT22;4871;52.004;5.924;2023-01-28T06:00:00;2.9;85.5
9666;DHT22;4871;52.004;5.924;2023-01-28T06:01:00;2.8;85.5
9666;DHT22;4871;52.004;5.924;2023-01-28T06:02:00;2.8;85.5
9666;DHT22;4871;52.004;5.924;2023-01-28T06:03:00;2.8;85.5
9666;DHT22;4871;52.004;5.924;2023-01-28T06:04:00;2.8;85.5
9666;DHT22;4871;52.004;5.924;2023-01-28T06:05:00;2.9;85.4
9666;DHT22;4871;52.004;5.924;2023-01-28T06:06:00;2.8;85.5
9666;DHT22;4871;52.004;5.924;2023-01-28T06:07:00;2.8;85.5
9666;DHT22;4871;52.004;5.924;2023-01-28T06:08:00;2.8;85.5
9666;DHT22;4871;52.004;5.924;2023-01-28T06:09:00;2.8;85.6
9666;DHT22;4871;52.004;5.924;2023-01-28T06:10:00;2.8;85.5
9666;DHT22;4871;52.004;5.924;2023-01-28T06:11:00;2.8;85.5
9666;DHT22;4871;52.004;5.924;2023-01-28T06:12:00;2.8;85.6
9666;DHT22;4871;52.004;5.924;2023-01-28T06:13:01;2.8;85.5
9666;DHT22;4871;52.004;5.924;2023-01-28T06:14:00;2.8;85.6
9666;DHT22;4871;52.004;5.924;2023-01-28T06:15:00;2.8;85.5
9666;DHT22;4871;52.004;5.924;2023-01-28T06:16:01;2.8;85.6
9666;DHT22;4871;52.004;5.924;2023-01-28T06:17:00;2.8;85.6
9666;DHT22;4871;52.004;5.924;2023-01-28T06:18:00;2.8;85.6
9666;DHT22;4871;52.004;5.924;2023-01-28T06:19:01;2.8;85.6
9666;DHT22;4871;52.004;5.924;2023-01-28T06:20:00;2.8;85.4
9666;DHT22;4871;52.004;5.924;2023-01-28T06:21:00;2.8;85.6
9666;DHT22;4871;52.004;5.924;2023-01-28T06:22:00;2.8;85.6
9666;DHT22;4871;52.004;5.924;2023-01-28T06:23:00;2.8;85.6
9666;DHT22;4871;52.004;5.924;2023-01-28T06:24:00;2.8;85.5
9666;DHT22;4871;52.004;5.924;2023-01-28T06:25:00;2.8;85.5
9666;DHT22;4871;52.004;5.924;2023-01-28T06:26:00;2.8;85.5
9666;DHT22;4871;52.004;5.924;2023-01-28T06:27:00;2.8;85.5
9666;DHT22;4871;52.004;5.924;2023-01-28T06:28:00;2.7;85.4
9666;DHT22;4871;52.004;5.924;2023-01-28T06:29:00;2.8;85.5
9666;DHT22;4871;52.004;5.924;2023-01-28T06:30:01;2.7;85.5
9666;DHT22;4871;52.004;5.924;2023-01-28T06:31:00;2.7;85.5
9666;DHT22;4871;52.004;5.924;2023-01-28T06:32:00;2.7;85.6
9666;DHT22;4871;52.004;5.924;2023-01-28T06:33:00;2.8;85.4
9666;DHT22;4871;52.004;5.924;2023-01-28T06:34:01;2.8;85.5
9666;DHT22;4871;52.004;5.924;2023-01-28T06:35:00;2.7;85.6
9666;DHT22;4871;52.004;5.924;2023-01-28T06:36:02;2.7;85.5
9666;DHT22;4871;52.004;5.924;2023-01-28T06:37:00;2.7;85.5
9666;DHT22;4871;52.004;5.924;2023-01-28T06:38:00;2.7;85.6
9666;DHT22;4871;52.004;5.924;2023-01-28T06:39:00;2.7;85.5
9666;DHT22;4871;52.004;5.924;2023-01-28T06:40:00;2.7;85.6
9666;DHT22;4871;52.004;5.924;2023-01-28T06:41:00;2.7;85.5
9666;DHT22;4871;52.004;5.924;2023-01-28T06:42:00;2.7;85.5
9666;DHT22;4871;52.004;5.924;2023-01-28T06:43:00;2.7;85.3
9666;DHT22;4871;52.004;5.924;2023-01-28T06:44:01;2.7;85.5
9666;DHT22;4871;52.004;5.924;2023-01-28T06:45:00;2.7;85.5
9666;DHT22;4871;52.004;5.924;2023-01-28T06:46:00;2.7;85.4
9666;DHT22;4871;52.004;5.924;2023-01-28T06:47:00;2.7;85.5
9666;DHT22;4871;52.004;5.924;2023-01-28T06:48:00;2.7;85.5
9666;DHT22;4871;52.004;5.924;2023-01-28T06:49:00;2.7;85.5
9666;DHT22;4871;52.004;5.924;2023-01-28T06:50:00;2.7;85.6
9666;DHT22;4871;52.004;5.924;2023-01-28T06:51:00;2.7;85.6
9666;DHT22;4871;52.004;5.924;2023-01-28T06:52:00;2.7;85.6
9666;DHT22;4871;52.004;5.924;2023-01-28T06:53:00;2.7;85.6
9666;DHT22;4871;52.004;5.924;2023-01-28T06:54:00;2.7;85.5
9666;DHT22;4871;52.004;5.924;2023-01-28T06:55:00;2.7;85.5
9666;DHT22;4871;52.004;5.924;2023-01-28T06:56:00;2.7;85.6
9666;DHT22;4871;52.004;5.924;2023-01-28T06:57:00;2.7;85.5
9666;DHT22;4871;52.004;5.924;2023-01-28T06:58:00;2.7;85.6
9666;DHT22;4871;52.004;5.924;2023-01-28T06:59:00;2.6;85.6
9666;DHT22;4871;52.004;5.924;2023-01-28T07:00:00;2.7;85.5
9666;DHT22;4871;52.004;5.924;2023-01-28T07:01:00;2.7;85.5
9666;DHT22;4871;52.004;5.924;2023-01-28T07:02:00;2.6;85.4
9666;DHT22;4871;52.004;5.924;2023-01-28T07:03:00;2.7;85.5
9666;DHT22;4871;52.004;5.924;2023-01-28T07:04:00;2.7;85.5